createdAt,value
2023-04-05T00:02:18.857Z,44.67
2023-04-05T00:04:52.569Z,47.45
2023-04-05T00:07:21.437Z,45.90
2023-04-05T00:09:49.152Z,46.97
2023-04-05T00:12:16.491Z,47.90
2023-04-05T00:14:43.353Z,49.97
2023-04-05T00:17:11.968Z,44.65
2023-04-05T00:19:39.657Z,48.88
2023-04-05T00:22:06.421Z,46.10
2023-04-05T00:24:33.962Z,54.13
2023-04-05T00:27:01.363Z,48.25
2023-04-05T00:29:28.521Z,47.67
2023-04-05T00:31:56.261Z,47.80
2023-04-05T00:34:23.274Z,45.10
2023-04-05T00:36:50.132Z,48.70
2023-04-05T00:39:18.298Z,46.42
2023-04-05T00:41:46.945Z,45.10
2023-04-05T00:44:15.703Z,45.83
2023-04-05T00:46:42.722Z,42.00
2023-04-05T00:49:09.589Z,43.85
2023-04-05T00:51:38.348Z,45.83
2023-04-05T00:54:06.291Z,46.60
2023-04-05T00:56:33.330Z,49.95
2023-04-05T00:59:00.229Z,46.33
2023-04-05T01:01:28.208Z,49.70
2023-04-05T01:04:08.862Z,56.05
2023-04-05T01:07:12.946Z,45.42
2023-04-05T01:09:56.690Z,48.80
2023-04-05T01:12:27.511Z,47.00
2023-04-05T01:14:55.584Z,51.55
2023-04-05T01:17:24.603Z,51.50
2023-04-05T01:19:54.583Z,48.70
2023-04-05T01:22:38.282Z,47.10
2023-04-05T01:25:23.705Z,45.63
2023-04-05T01:27:59.560Z,51.85
2023-04-05T01:30:42.754Z,47.13
2023-04-05T01:33:28.474Z,43.17
2023-04-05T01:36:01.788Z,46.83
2023-04-05T01:38:30.310Z,47.38
2023-04-05T01:40:57.160Z,46.35
2023-04-05T01:43:24.046Z,44.42
2023-04-05T01:45:50.832Z,46.60
2023-04-05T01:48:17.610Z,46.40
2023-04-05T01:50:44.516Z,41.58
2023-04-05T01:53:11.234Z,46.75
2023-04-05T01:55:38.356Z,44.10
2023-04-05T01:58:05.457Z,44.05
2023-04-05T02:00:32.588Z,46.58
2023-04-05T02:02:59.492Z,44.72
2023-04-05T02:05:26.344Z,47.65
2023-04-05T02:07:53.059Z,40.45
2023-04-05T02:10:20.549Z,43.88
2023-04-05T02:12:47.434Z,46.10
2023-04-05T02:15:14.388Z,45.97
2023-04-05T02:17:45.857Z,38.78
2023-04-05T02:20:14.680Z,41.90
2023-04-05T02:22:42.062Z,44.92
2023-04-05T02:25:09.353Z,43.15
2023-04-05T02:27:36.179Z,41.92
2023-04-05T02:30:03.065Z,44.03
2023-04-05T02:32:29.913Z,42.88
2023-04-05T02:34:56.754Z,44.17
2023-04-05T02:37:23.546Z,42.88
2023-04-05T02:39:50.532Z,47.05
2023-04-05T02:42:17.258Z,47.13
2023-04-05T02:44:45.270Z,50.35
2023-04-05T02:47:12.049Z,44.35
2023-04-05T02:49:38.812Z,41.80
2023-04-05T02:52:05.603Z,42.92
2023-04-05T02:54:32.304Z,46.88
2023-04-05T02:57:02.406Z,50.38
2023-04-05T02:59:29.336Z,44.30
2023-04-05T03:01:56.175Z,41.85
2023-04-05T03:04:28.648Z,40.08
2023-04-05T03:06:57.315Z,43.42
2023-04-05T03:09:24.205Z,45.13
2023-04-05T03:11:50.942Z,46.67
2023-04-05T03:14:17.668Z,43.95
2023-04-05T03:16:44.759Z,41.28
2023-04-05T03:19:11.464Z,45.83
2023-04-05T03:21:39.801Z,44.88
2023-04-05T03:24:08.222Z,39.45
2023-04-05T03:26:35.023Z,47.15
2023-04-05T03:29:02.091Z,44.22
2023-04-05T03:31:30.463Z,43.58
2023-04-05T03:33:57.201Z,41.95
2023-04-05T03:36:24.118Z,39.63
2023-04-05T03:38:52.083Z,45.35
2023-04-05T03:41:18.791Z,46.88
2023-04-05T03:43:45.575Z,40.58
2023-04-05T03:46:12.355Z,40.88
2023-04-05T03:48:39.246Z,39.45
2023-04-05T03:51:06.268Z,41.50
2023-04-05T03:53:33.398Z,41.10
2023-04-05T03:56:00.290Z,49.50
2023-04-05T03:58:27.274Z,42.50
2023-04-05T04:00:56.090Z,45.22
2023-04-05T04:03:22.836Z,46.40
2023-04-05T04:05:49.615Z,40.53
2023-04-05T04:08:16.313Z,49.95
2023-04-05T04:10:43.072Z,44.63
2023-04-05T04:13:09.748Z,46.88
2023-04-05T04:15:36.533Z,46.58
2023-04-05T04:18:03.382Z,41.70
2023-04-05T04:20:30.206Z,46.03
2023-04-05T04:22:58.896Z,46.38
2023-04-05T04:25:30.633Z,47.95
2023-04-05T04:27:58.788Z,42.45
2023-04-05T04:30:25.813Z,45.53
2023-04-05T04:32:53.405Z,42.67
2023-04-05T04:35:24.699Z,40.35
2023-04-05T04:38:00.160Z,45.28
2023-04-05T04:40:40.173Z,48.42
2023-04-05T04:43:14.518Z,48.47
2023-04-05T04:45:41.726Z,44.83
2023-04-05T04:48:08.677Z,49.28
2023-04-05T04:50:35.970Z,53.20
2023-04-05T04:53:02.701Z,50.70
2023-04-05T04:55:33.463Z,52.08
2023-04-05T04:58:00.573Z,53.22
2023-04-05T05:00:27.275Z,49.92
2023-04-05T05:02:55.495Z,55.40
2023-04-05T05:05:26.437Z,56.67
2023-04-05T05:07:53.652Z,48.83
2023-04-05T05:10:21.060Z,47.05
2023-04-05T05:12:48.826Z,53.60
2023-04-05T05:15:15.675Z,53.42
2023-04-05T05:17:43.033Z,45.53
2023-04-05T05:20:11.345Z,52.63
2023-04-05T05:22:39.313Z,54.80
2023-04-05T05:25:09.204Z,46.80
2023-04-05T05:27:36.447Z,53.72
2023-04-05T05:30:03.889Z,52.65
2023-04-05T05:32:30.699Z,52.25
2023-04-05T05:34:57.555Z,41.08
2023-04-05T05:37:31.898Z,48.92
2023-04-05T05:39:59.269Z,57.97
2023-04-05T05:42:27.320Z,59.80
2023-04-05T05:44:54.057Z,48.92
2023-04-05T05:47:21.133Z,48.88
2023-04-05T05:49:49.723Z,49.60
2023-04-05T05:52:16.917Z,48.10
2023-04-05T05:54:43.664Z,49.28
2023-04-05T05:57:10.938Z,51.58
2023-04-05T05:59:37.857Z,49.67
2023-04-05T06:02:05.912Z,51.17
2023-04-05T06:04:34.162Z,53.00
2023-04-05T06:07:01.776Z,51.35
2023-04-05T06:09:29.055Z,58.90
2023-04-05T06:11:57.326Z,48.83
2023-04-05T06:14:25.219Z,49.22
2023-04-05T06:16:52.318Z,54.38
2023-04-05T06:19:19.139Z,54.53
2023-04-05T06:21:45.882Z,50.28
2023-04-05T06:24:12.713Z,55.30
2023-04-05T06:26:39.404Z,57.15
2023-04-05T06:29:06.273Z,50.22
2023-04-05T06:31:34.840Z,47.85
2023-04-05T06:34:02.295Z,40.50
2023-04-05T06:36:33.933Z,49.28
2023-04-05T06:39:00.963Z,44.08
2023-04-05T06:41:27.907Z,45.65
2023-04-05T06:43:55.506Z,51.05
2023-04-05T06:46:22.845Z,46.50
2023-04-05T06:48:50.329Z,48.75
2023-04-05T06:51:18.727Z,44.17
2023-04-05T06:53:45.429Z,46.20
2023-04-05T06:56:12.444Z,47.78
2023-04-05T06:58:39.175Z,44.15
2023-04-05T07:01:06.595Z,54.45
2023-04-05T07:03:34.068Z,56.25
2023-04-05T07:06:01.243Z,54.55
2023-04-05T07:08:29.413Z,52.97
2023-04-05T07:10:56.458Z,40.83
2023-04-05T07:13:24.712Z,45.55
2023-04-05T07:15:52.255Z,52.45
2023-04-05T07:18:19.480Z,48.22
2023-04-05T07:20:49.205Z,44.95
2023-04-05T07:23:16.586Z,36.60
2023-04-05T07:25:43.972Z,34.63
2023-04-05T07:28:11.066Z,37.92
2023-04-05T07:30:37.976Z,38.00
2023-04-05T07:33:04.869Z,34.67
2023-04-05T07:35:31.720Z,42.92
2023-04-05T07:37:58.823Z,33.85
2023-04-05T07:40:25.815Z,46.70
2023-04-05T07:42:52.568Z,40.35
2023-04-05T07:45:19.331Z,33.80
2023-04-05T07:47:46.763Z,32.88
2023-04-05T07:50:17.235Z,43.47
2023-04-05T07:52:43.990Z,38.55
2023-04-05T07:55:10.936Z,35.40
2023-04-05T07:57:37.965Z,32.83
2023-04-05T08:00:10.854Z,34.90
2023-04-05T08:02:37.803Z,28.48
2023-04-05T08:05:05.465Z,23.42
2023-04-05T08:07:32.233Z,27.67
2023-04-05T08:09:59.920Z,25.75
2023-04-05T08:12:27.456Z,23.75
2023-04-05T08:14:54.285Z,30.38
2023-04-05T08:17:21.134Z,31.40
2023-04-05T08:19:49.486Z,26.60
2023-04-05T08:22:17.800Z,16.15
2023-04-05T08:24:45.076Z,12.13
2023-04-05T08:27:12.220Z,15.05
2023-04-05T08:29:38.988Z,12.65
2023-04-05T08:32:06.184Z,12.35
2023-04-05T08:34:33.032Z,12.50
2023-04-05T08:37:00.405Z,16.00
2023-04-05T08:39:27.381Z,13.27
2023-04-05T08:42:17.413Z,10.38
2023-04-05T08:44:46.322Z,14.43
2023-04-05T08:47:18.493Z,15.48
2023-04-05T08:49:46.189Z,17.85
2023-04-05T08:52:13.096Z,20.08
2023-04-05T08:54:40.086Z,17.58
2023-04-05T08:57:08.172Z,15.60
2023-04-05T08:59:38.386Z,25.38
2023-04-05T09:02:14.392Z,17.85
2023-04-05T09:04:44.936Z,17.05
2023-04-05T09:07:13.472Z,19.40
2023-04-05T09:09:44.264Z,16.67
2023-04-05T09:12:11.610Z,17.70
2023-04-05T09:14:39.850Z,16.88
2023-04-05T09:17:06.715Z,17.58
2023-04-05T09:19:33.588Z,18.80
2023-04-05T09:22:02.147Z,12.27
2023-04-05T09:24:33.134Z,15.85
2023-04-05T09:27:13.217Z,16.25
2023-04-05T09:29:41.884Z,14.75
2023-04-05T09:32:10.617Z,14.48
2023-04-05T09:34:38.529Z,15.77
2023-04-05T09:37:15.795Z,19.30
2023-04-05T09:39:43.588Z,9.35
2023-04-05T09:42:17.545Z,17.60
2023-04-05T09:45:04.871Z,15.80
2023-04-05T09:47:36.701Z,12.50
2023-04-05T09:50:23.812Z,15.07
2023-04-05T09:52:52.543Z,16.25
2023-04-05T09:55:29.088Z,16.65
2023-04-05T09:57:55.981Z,11.18
2023-04-05T10:00:23.176Z,13.68
2023-04-05T10:02:55.632Z,15.40
2023-04-05T10:05:27.935Z,13.65
2023-04-05T10:07:56.274Z,11.32
2023-04-05T10:10:24.167Z,16.05
2023-04-05T10:12:51.364Z,12.00
2023-04-05T10:15:19.123Z,18.13
2023-04-05T10:18:08.443Z,13.60
2023-04-05T10:20:41.137Z,13.00
2023-04-05T10:23:26.987Z,13.65
2023-04-05T10:25:54.008Z,15.40
2023-04-05T10:28:34.700Z,15.45
2023-04-05T10:33:48.208Z,12.63
2023-04-05T10:36:37.942Z,13.57
2023-04-05T10:39:12.431Z,11.82
2023-04-05T10:41:52.810Z,21.45
2023-04-05T10:44:26.269Z,17.30
2023-04-05T10:46:54.898Z,15.63
2023-04-05T10:49:39.718Z,14.38
2023-04-05T10:52:07.091Z,12.60
2023-04-05T10:54:36.934Z,21.05
2023-04-05T10:57:09.509Z,16.60
2023-04-05T10:59:41.780Z,13.82
2023-04-05T11:02:09.780Z,9.32
2023-04-05T11:04:37.691Z,11.43
2023-04-05T11:07:19.649Z,12.57
2023-04-05T11:09:52.728Z,13.45
2023-04-05T11:12:19.678Z,13.07
2023-04-05T11:14:46.509Z,18.60
2023-04-05T11:17:28.035Z,12.40
2023-04-05T11:20:05.527Z,21.35
2023-04-05T11:22:32.371Z,16.15
2023-04-05T11:25:02.708Z,10.40
2023-04-05T11:27:34.578Z,12.10
2023-04-05T11:30:03.108Z,13.18
2023-04-05T11:32:43.828Z,10.48
2023-04-05T11:35:22.986Z,12.25
2023-04-05T11:38:02.100Z,18.15
2023-04-05T11:40:33.866Z,11.02
2023-04-05T11:43:08.691Z,12.07
2023-04-05T11:45:37.517Z,12.93
2023-04-05T11:48:11.945Z,15.57
2023-04-05T11:50:42.025Z,8.35
2023-04-05T11:53:14.214Z,11.43
2023-04-05T11:55:43.186Z,14.18
2023-04-05T11:58:24.157Z,10.15
2023-04-05T12:01:07.428Z,13.45
2023-04-05T12:03:35.587Z,8.95
2023-04-05T12:06:04.743Z,16.95
2023-04-05T12:08:43.022Z,9.60
2023-04-05T12:11:11.719Z,10.73
2023-04-05T12:13:39.185Z,11.48
2023-04-05T12:16:07.962Z,14.15
2023-04-05T12:18:37.097Z,9.95
2023-04-05T12:21:09.997Z,12.02
2023-04-05T12:23:38.162Z,14.02
2023-04-05T12:26:07.706Z,10.18
2023-04-05T12:28:50.515Z,8.02
2023-04-05T12:31:17.441Z,13.23
2023-04-05T12:33:44.393Z,11.55
2023-04-05T12:36:13.965Z,12.77
2023-04-05T12:38:40.879Z,14.30
2023-04-05T12:41:07.748Z,12.32
2023-04-05T12:43:41.992Z,10.65
2023-04-05T12:46:18.489Z,11.23
2023-04-05T12:48:51.705Z,20.50
2023-04-05T12:51:18.396Z,16.30
2023-04-05T12:53:50.774Z,17.50
2023-04-05T12:56:18.471Z,18.17
2023-04-05T12:58:52.495Z,12.25
2023-04-05T13:01:19.431Z,10.68
2023-04-05T13:03:49.645Z,12.57
2023-04-05T13:08:43.527Z,14.48
2023-04-05T13:11:10.466Z,9.50
2023-04-05T13:13:37.228Z,13.57
2023-04-05T13:16:03.977Z,11.65
2023-04-05T13:18:30.809Z,10.95
2023-04-05T13:20:57.732Z,16.88
2023-04-05T13:23:24.450Z,12.30
2023-04-05T13:25:51.146Z,18.98
2023-04-05T13:28:17.918Z,14.10
2023-04-05T13:30:44.608Z,14.32
2023-04-05T13:33:11.322Z,12.93
2023-04-05T13:35:38.118Z,13.65
2023-04-05T13:38:05.674Z,18.77
2023-04-05T13:40:32.761Z,11.95
2023-04-05T13:43:01.409Z,12.85
2023-04-05T13:45:28.169Z,14.82
2023-04-05T13:47:55.641Z,11.30
2023-04-05T13:50:22.429Z,12.43
2023-04-05T13:52:49.303Z,15.35
2023-04-05T13:55:16.103Z,11.75
2023-04-05T13:57:42.921Z,15.98
2023-04-05T14:00:10.641Z,12.88
2023-04-05T14:02:37.594Z,14.85
2023-04-05T14:05:05.238Z,27.30
2023-04-05T14:07:32.120Z,16.50
2023-04-05T14:09:58.855Z,18.40
2023-04-05T14:12:25.619Z,24.70
2023-04-05T14:14:52.367Z,16.23
2023-04-05T14:17:19.270Z,12.55
2023-04-05T14:19:46.259Z,23.50
2023-04-05T14:22:13.021Z,28.13
2023-04-05T14:24:39.850Z,28.48
2023-04-05T14:27:06.603Z,32.20
2023-04-05T14:29:33.436Z,17.35
2023-04-05T14:32:00.285Z,13.35
2023-04-05T14:34:27.114Z,15.48
2023-04-05T14:36:56.593Z,24.73
2023-04-05T14:39:23.417Z,16.02
2023-04-05T14:41:52.626Z,19.77
2023-04-05T14:44:19.358Z,18.95
2023-04-05T14:46:46.188Z,13.95
2023-04-05T14:49:12.912Z,17.60
2023-04-05T14:51:40.295Z,17.92
2023-04-05T14:54:09.685Z,16.33
2023-04-05T14:56:36.519Z,12.23
2023-04-05T14:59:03.295Z,18.60
2023-04-05T15:01:30.822Z,16.92
2023-04-05T15:03:57.833Z,25.35
2023-04-05T15:06:24.624Z,17.98
2023-04-05T15:08:51.531Z,15.93
2023-04-05T15:11:18.368Z,19.35
2023-04-05T15:13:45.271Z,18.77
2023-04-05T15:16:12.060Z,16.70
2023-04-05T15:18:38.972Z,18.58
2023-04-05T15:21:07.392Z,20.92
2023-04-05T15:23:34.270Z,19.25
2023-04-05T15:26:01.023Z,19.23
2023-04-05T15:28:27.726Z,21.92
2023-04-05T15:30:54.517Z,24.55
2023-04-05T15:33:21.276Z,20.23
2023-04-05T15:35:47.976Z,20.88
2023-04-05T15:38:14.726Z,16.83
2023-04-05T15:40:41.574Z,19.70
2023-04-05T15:43:09.454Z,21.58
2023-04-05T15:45:36.222Z,21.90
2023-04-05T15:48:03.224Z,19.52
2023-04-05T15:50:30.089Z,18.75
2023-04-05T15:52:56.860Z,16.70
2023-04-05T15:55:23.735Z,17.58
2023-04-05T15:57:54.503Z,19.77
2023-04-05T16:00:22.643Z,18.50
2023-04-05T16:02:50.178Z,21.35
2023-04-05T16:05:50.693Z,23.02
2023-04-05T16:08:20.690Z,20.20
2023-04-05T16:11:13.770Z,21.38
2023-04-05T16:14:14.176Z,20.50
2023-04-05T16:17:23.636Z,19.48
2023-04-05T16:22:14.239Z,21.00
2023-04-05T16:24:41.065Z,20.80
2023-04-05T16:27:07.909Z,20.00
2023-04-05T16:29:34.687Z,18.92
2023-04-05T16:32:01.735Z,22.20
2023-04-05T16:34:28.737Z,19.63
2023-04-05T16:36:55.634Z,22.40
2023-04-05T16:39:22.375Z,23.10
2023-04-05T16:41:49.114Z,27.75
2023-04-05T16:44:16.648Z,25.45
2023-04-05T16:46:45.279Z,24.77
2023-04-05T16:49:11.983Z,21.17
2023-04-05T16:51:38.707Z,24.45
2023-04-05T16:54:06.519Z,19.70
2023-04-05T16:56:33.353Z,21.77
2023-04-05T16:59:00.556Z,19.52
2023-04-05T17:01:27.731Z,23.67
2023-04-05T17:03:54.542Z,26.75
2023-04-05T17:06:21.378Z,23.42
2023-04-05T17:08:48.136Z,25.52
2023-04-05T17:11:14.852Z,26.85
2023-04-05T17:13:41.995Z,26.17
2023-04-05T17:16:08.971Z,29.90
2023-04-05T17:18:35.844Z,30.25
2023-04-05T17:21:02.650Z,28.48
2023-04-05T17:23:29.397Z,28.23
2023-04-05T17:25:56.147Z,27.60
2023-04-05T17:28:22.879Z,25.23
2023-04-05T17:30:49.661Z,31.20
2023-04-05T17:33:16.618Z,24.25
2023-04-05T17:35:43.620Z,27.23
2023-04-05T17:38:10.995Z,25.60
2023-04-05T17:40:37.690Z,31.38
2023-04-05T17:43:04.573Z,31.48
2023-04-05T17:45:31.265Z,31.98
2023-04-05T17:47:58.121Z,35.72
2023-04-05T17:50:25.080Z,31.83
2023-04-05T17:52:51.811Z,38.22
2023-04-05T17:55:18.626Z,38.97
2023-04-05T17:57:45.559Z,37.88
2023-04-05T18:00:12.913Z,36.50
2023-04-05T18:02:40.798Z,32.03
2023-04-05T18:05:08.040Z,34.92
2023-04-05T18:07:38.458Z,34.58
2023-04-05T18:10:06.897Z,34.40
2023-04-05T18:12:34.209Z,44.50
2023-04-05T18:15:00.999Z,44.00
2023-04-05T18:17:28.359Z,38.25
2023-04-05T18:19:55.174Z,41.53
2023-04-05T18:22:23.207Z,44.78
2023-04-05T18:24:49.972Z,41.88
2023-04-05T18:27:16.717Z,36.53
2023-04-05T18:29:44.145Z,30.80
2023-04-05T18:32:10.993Z,33.75
2023-04-05T18:34:37.820Z,36.08
2023-04-05T18:37:05.623Z,40.17
2023-04-05T18:39:32.341Z,37.70
2023-04-05T18:41:59.220Z,30.55
2023-04-05T18:44:26.089Z,30.77
2023-04-05T18:46:53.609Z,30.08
2023-04-05T18:49:21.213Z,35.45
2023-04-05T18:51:48.942Z,32.78
2023-04-05T18:54:18.331Z,31.17
2023-04-05T18:56:45.626Z,32.40
2023-04-05T18:59:12.728Z,28.05
2023-04-05T19:01:39.607Z,27.92
2023-04-05T19:04:07.401Z,24.40
2023-04-05T19:06:34.965Z,32.30
2023-04-05T19:09:02.047Z,27.27
2023-04-05T19:11:28.824Z,29.38
2023-04-05T19:13:56.005Z,33.13
2023-04-05T19:16:22.789Z,33.10
2023-04-05T19:18:49.469Z,35.53
2023-04-05T19:21:16.305Z,35.97
2023-04-05T19:23:43.008Z,35.72
2023-04-05T19:26:09.795Z,38.25
2023-04-05T19:28:36.594Z,33.60
2023-04-05T19:31:03.399Z,46.28
2023-04-05T19:33:31.614Z,56.92
2023-04-05T19:35:58.763Z,80.82
2023-04-05T19:38:25.684Z,47.25
2023-04-05T19:40:52.940Z,42.25
2023-04-05T19:43:19.777Z,61.35
2023-04-05T19:45:56.186Z,38.70
2023-04-05T19:48:47.101Z,38.15
2023-04-05T19:51:15.454Z,52.33
2023-04-05T19:53:53.676Z,39.00
2023-04-05T19:56:22.798Z,37.95
2023-04-05T19:59:16.501Z,44.63
2023-04-05T20:01:47.081Z,58.45
2023-04-05T20:04:18.889Z,52.70
2023-04-05T20:06:52.759Z,51.97
2023-04-05T20:09:21.188Z,48.17
2023-04-05T20:11:55.987Z,40.72
2023-04-05T20:14:30.418Z,40.65
2023-04-05T20:16:58.621Z,38.92
2023-04-05T20:19:30.677Z,40.88
2023-04-05T20:22:01.513Z,35.38
2023-04-05T20:24:29.286Z,35.53
2023-04-05T20:26:59.413Z,36.33
2023-04-05T20:29:28.868Z,42.35
2023-04-05T20:31:56.534Z,45.13
2023-04-05T20:34:32.512Z,32.80
2023-04-05T20:37:01.811Z,35.15
2023-04-05T20:39:29.641Z,32.28
2023-04-05T20:41:57.029Z,29.33
2023-04-05T20:44:24.477Z,34.50
2023-04-05T20:46:54.188Z,34.70
2023-04-05T20:49:22.355Z,33.40
2023-04-05T20:51:50.716Z,41.15
2023-04-05T20:54:18.974Z,38.05
2023-04-05T20:56:46.052Z,41.65
2023-04-05T20:59:14.590Z,40.67
2023-04-05T21:01:42.823Z,40.25
2023-04-05T21:04:10.148Z,37.05
2023-04-05T21:06:37.582Z,39.72
2023-04-05T21:09:04.981Z,40.95
2023-04-05T21:11:31.904Z,36.20
2023-04-05T21:13:58.684Z,32.45
2023-04-05T21:16:25.803Z,34.55
2023-04-05T21:18:52.554Z,33.92
2023-04-05T21:21:19.340Z,31.77
2023-04-05T21:23:47.566Z,33.70
2023-04-05T21:26:14.444Z,38.72
2023-04-05T21:28:41.156Z,40.95
2023-04-05T21:31:08.004Z,35.30
2023-04-05T21:33:34.910Z,32.40
2023-04-05T21:36:01.784Z,37.33
2023-04-05T21:38:28.918Z,41.33
2023-04-05T21:41:01.273Z,34.50
2023-04-05T21:43:28.127Z,37.97
2023-04-05T21:45:55.160Z,35.53
2023-04-05T21:48:24.249Z,35.88
2023-04-05T21:50:51.133Z,35.42
2023-04-05T21:53:18.127Z,35.45
2023-04-05T21:55:45.031Z,35.17
2023-04-05T21:58:11.792Z,33.50
2023-04-05T22:00:38.678Z,35.85
2023-04-05T22:03:05.555Z,32.38
2023-04-05T22:05:37.846Z,38.85
2023-04-05T22:08:06.679Z,33.22
2023-04-05T22:10:34.253Z,34.92
2023-04-05T22:13:01.096Z,30.00
2023-04-05T22:15:27.953Z,33.97
2023-04-05T22:17:55.993Z,34.42
2023-04-05T22:20:22.747Z,33.03
2023-04-05T22:22:49.566Z,34.42
2023-04-05T22:25:16.442Z,29.88
2023-04-05T22:27:44.321Z,48.15
2023-04-05T22:30:13.935Z,43.28
2023-04-05T22:32:40.830Z,50.10
2023-04-05T22:35:08.108Z,52.03
2023-04-05T22:37:38.244Z,53.25
2023-04-05T22:40:08.371Z,49.47
2023-04-05T22:42:35.377Z,48.55
2023-04-05T22:45:03.578Z,44.50
2023-04-05T22:47:30.559Z,37.92
2023-04-05T22:49:57.436Z,38.13
2023-04-05T22:52:24.281Z,32.53
2023-04-05T22:54:51.140Z,33.00
2023-04-05T22:57:20.467Z,36.58
2023-04-05T22:59:47.698Z,32.47
2023-04-05T23:02:14.835Z,33.88
2023-04-05T23:04:41.631Z,33.85
2023-04-05T23:07:08.372Z,34.13
2023-04-05T23:09:35.671Z,34.22
2023-04-05T23:12:04.430Z,39.35
2023-04-05T23:14:31.475Z,33.83
2023-04-05T23:16:58.247Z,36.92
2023-04-05T23:19:25.063Z,37.03
2023-04-05T23:21:52.139Z,39.40
2023-04-05T23:24:21.142Z,37.47
2023-04-05T23:26:47.973Z,35.92
2023-04-05T23:29:15.025Z,36.47
2023-04-05T23:31:41.752Z,39.28
2023-04-05T23:34:09.673Z,37.92
2023-04-05T23:36:36.479Z,38.28
2023-04-05T23:39:03.572Z,33.25
2023-04-05T23:41:30.365Z,35.20
2023-04-05T23:43:57.185Z,31.75
2023-04-05T23:46:24.488Z,34.53
2023-04-05T23:48:51.236Z,32.88
2023-04-05T23:51:18.165Z,31.08
2023-04-05T23:53:44.946Z,35.58
2023-04-05T23:56:11.714Z,32.92
2023-04-05T23:58:38.628Z,33.15
